This is the latest recevied weather packets stored in our database for station/object KE5WTH-14. If no packets are shown the sender has not sent any weather packets the latest 10 day(s).
| Time | Temp. | Humidity | Pressure | Rain* | Wind** | Luminosity | Snow |
|---|---|---|---|---|---|---|---|
| 1777489625 | 17.22° C | 75% | 1014.5 hPa | 0 mm | - | 202 W/m² | - |
| 1777489565 | 17.22° C | 75% | 1014.6 hPa | 0 mm | - | 150 W/m² | - |
| 1777489505 | 17.78° C | 75% | 1014.7 hPa | 0 mm | - | 150 W/m² | - |
| 1777489454 | 17.78° C | 75% | 1014.7 hPa | 0 mm | - | 111 W/m² | - |
| 1777489426 | 17.78° C | 75% | 1014.8 hPa | 0 mm | - | 111 W/m² | - |
| 1777489400 | 17.78° C | 75% | 1014.6 hPa | 0 mm | - | 160 W/m² | - |
| 1777489372 | 17.78° C | 75% | 1014.6 hPa | 0 mm | - | 160 W/m² | - |
| 1777489204 | 17.78° C | 74% | 1014.5 hPa | 0 mm | - | 195 W/m² | - |
| 1777489162 | 17.78° C | 75% | 1014.4 hPa | 0 mm | - | 216 W/m² | - |
| 1777489135 | 17.78° C | 75% | 1014.5 hPa | 0 mm | - | 213 W/m² | - |
| 1777489103 | 17.78° C | 75% | 1014.3 hPa | 0 mm | - | 213 W/m² | - |
| 1777489068 | 17.78° C | 75% | 1014.3 hPa | 0 mm | - | 244 W/m² | - |
| 1777488888 | 17.78° C | 75% | 1014.3 hPa | 0 mm | - | 257 W/m² | - |
| 1777488829 | 17.78° C | 75% | 1014.3 hPa | 0 mm | - | 285 W/m² | - |
| 1777488763 | 17.78° C | 76% | 1014.2 hPa | 0 mm | - | 320 W/m² | - |
| 1777488695 | 17.78° C | 76% | 1014.2 hPa | 0 mm | - | 378 W/m² | - |
| 1777488634 | 17.78° C | 76% | 1014.3 hPa | 0 mm | - | 378 W/m² | - |
| 1777488572 | 17.78° C | 76% | 1014.3 hPa | 0 mm | - | 359 W/m² | - |
| 1777488512 | 17.78° C | 76% | 1014.4 hPa | 0 mm | - | 339 W/m² | - |
| 1777488454 | 17.78° C | 76% | 1014.4 hPa | 0 mm | - | 345 W/m² | - |
| 1777488392 | 17.78° C | 77% | 1014.3 hPa | 0 mm | - | 454 W/m² | - |
| 1777488334 | 17.22° C | 76% | 1014.1 hPa | 0 mm | - | 485 W/m² | - |
| 1777488272 | 17.22° C | 76% | 1014 hPa | 0 mm | - | 528 W/m² | - |
| 1777488238 | 17.22° C | 76% | 1014 hPa | 0 mm | - | 528 W/m² | - |
| 1777488207 | 17.22° C | 76% | 1014.2 hPa | 0 mm | - | 522 W/m² | - |
* Rain latest hour (hover to see other rain measurements)
** Current wind speed in m/s (hover to see current wind gust speed)